sensor_id;sensor_type;location;lat;lon;timestamp;temperature;humidity
31129;DHT22;17777;48.770;8.944;2023-05-29T00:00:20;21.20;37.20
31129;DHT22;17777;48.770;8.944;2023-05-29T00:02:47;21.20;37.20
31129;DHT22;17777;48.770;8.944;2023-05-29T00:05:14;21.20;37.30
31129;DHT22;17777;48.770;8.944;2023-05-29T00:07:41;21.10;37.30
31129;DHT22;17777;48.770;8.944;2023-05-29T00:10:08;21.10;37.50
31129;DHT22;17777;48.770;8.944;2023-05-29T00:12:36;21.00;37.50
31129;DHT22;17777;48.770;8.944;2023-05-29T00:15:02;21.00;37.60
31129;DHT22;17777;48.770;8.944;2023-05-29T00:17:29;20.90;37.50
31129;DHT22;17777;48.770;8.944;2023-05-29T00:19:58;20.90;37.60
31129;DHT22;17777;48.770;8.944;2023-05-29T00:22:24;20.90;37.70
31129;DHT22;17777;48.770;8.944;2023-05-29T00:24:53;20.90;37.70
31129;DHT22;17777;48.770;8.944;2023-05-29T00:27:19;20.80;38.40
31129;DHT22;17777;48.770;8.944;2023-05-29T00:29:46;20.80;37.90
31129;DHT22;17777;48.770;8.944;2023-05-29T00:32:12;20.80;37.90
31129;DHT22;17777;48.770;8.944;2023-05-29T00:34:37;20.70;37.80
31129;DHT22;17777;48.770;8.944;2023-05-29T00:37:04;20.70;37.90
31129;DHT22;17777;48.770;8.944;2023-05-29T00:39:30;20.70;37.90
31129;DHT22;17777;48.770;8.944;2023-05-29T00:41:56;20.60;37.90
31129;DHT22;17777;48.770;8.944;2023-05-29T00:44:22;20.60;38.10
31129;DHT22;17777;48.770;8.944;2023-05-29T00:46:51;20.60;38.10
31129;DHT22;17777;48.770;8.944;2023-05-29T00:49:21;20.50;38.30
31129;DHT22;17777;48.770;8.944;2023-05-29T00:51:48;20.50;38.20
31129;DHT22;17777;48.770;8.944;2023-05-29T00:54:20;20.50;38.30
31129;DHT22;17777;48.770;8.944;2023-05-29T00:56:47;20.40;38.50
31129;DHT22;17777;48.770;8.944;2023-05-29T00:59:13;20.40;38.20
31129;DHT22;17777;48.770;8.944;2023-05-29T01:01:39;20.40;38.20
31129;DHT22;17777;48.770;8.944;2023-05-29T01:04:06;20.40;38.20
31129;DHT22;17777;48.770;8.944;2023-05-29T01:06:32;20.30;38.20
31129;DHT22;17777;48.770;8.944;2023-05-29T01:08:58;20.30;38.30
31129;DHT22;17777;48.770;8.944;2023-05-29T01:14:05;20.20;38.80
31129;DHT22;17777;48.770;8.944;2023-05-29T01:20:41;20.20;38.60
31129;DHT22;17777;48.770;8.944;2023-05-29T01:25:57;20.10;39.00
31129;DHT22;17777;48.770;8.944;2023-05-29T01:31:30;20.00;38.90
31129;DHT22;17777;48.770;8.944;2023-05-29T01:33:58;20.00;38.60
31129;DHT22;17777;48.770;8.944;2023-05-29T01:36:25;20.00;38.60
31129;DHT22;17777;48.770;8.944;2023-05-29T01:38:53;19.90;38.60
31129;DHT22;17777;48.770;8.944;2023-05-29T01:41:21;19.90;38.80
31129;DHT22;17777;48.770;8.944;2023-05-29T01:43:49;19.80;38.70
31129;DHT22;17777;48.770;8.944;2023-05-29T01:46:18;19.80;38.70
31129;DHT22;17777;48.770;8.944;2023-05-29T01:48:45;19.70;38.80
31129;DHT22;17777;48.770;8.944;2023-05-29T01:51:11;19.70;38.80
31129;DHT22;17777;48.770;8.944;2023-05-29T01:53:42;19.70;38.90
31129;DHT22;17777;48.770;8.944;2023-05-29T01:56:09;19.70;39.20
31129;DHT22;17777;48.770;8.944;2023-05-29T01:58:38;19.60;39.10
31129;DHT22;17777;48.770;8.944;2023-05-29T02:01:06;19.60;39.20
31129;DHT22;17777;48.770;8.944;2023-05-29T02:03:33;19.50;39.20
31129;DHT22;17777;48.770;8.944;2023-05-29T02:06:00;19.50;39.10
31129;DHT22;17777;48.770;8.944;2023-05-29T02:08:26;19.50;39.50
31129;DHT22;17777;48.770;8.944;2023-05-29T02:10:52;19.50;39.20
31129;DHT22;17777;48.770;8.944;2023-05-29T02:13:19;19.40;39.10
31129;DHT22;17777;48.770;8.944;2023-05-29T02:15:46;19.40;39.20
31129;DHT22;17777;48.770;8.944;2023-05-29T02:18:14;19.30;39.10
31129;DHT22;17777;48.770;8.944;2023-05-29T02:20:41;19.40;39.30
31129;DHT22;17777;48.770;8.944;2023-05-29T02:23:10;19.30;39.20
31129;DHT22;17777;48.770;8.944;2023-05-29T02:25:36;19.30;39.50
31129;DHT22;17777;48.770;8.944;2023-05-29T02:28:03;19.30;39.40
31129;DHT22;17777;48.770;8.944;2023-05-29T02:30:29;19.20;39.40
31129;DHT22;17777;48.770;8.944;2023-05-29T02:32:55;19.20;39.40
31129;DHT22;17777;48.770;8.944;2023-05-29T02:35:21;19.20;39.50
31129;DHT22;17777;48.770;8.944;2023-05-29T02:37:51;19.10;39.40
31129;DHT22;17777;48.770;8.944;2023-05-29T02:40:18;19.10;39.70
31129;DHT22;17777;48.770;8.944;2023-05-29T02:42:44;19.10;39.60
31129;DHT22;17777;48.770;8.944;2023-05-29T02:45:11;19.10;39.60
31129;DHT22;17777;48.770;8.944;2023-05-29T02:47:37;19.00;39.70
31129;DHT22;17777;48.770;8.944;2023-05-29T02:50:04;19.00;39.70
31129;DHT22;17777;48.770;8.944;2023-05-29T02:52:35;19.00;39.80
31129;DHT22;17777;48.770;8.944;2023-05-29T02:55:05;18.90;40.00
31129;DHT22;17777;48.770;8.944;2023-05-29T02:57:31;18.90;39.80
31129;DHT22;17777;48.770;8.944;2023-05-29T02:59:58;18.90;39.80
31129;DHT22;17777;48.770;8.944;2023-05-29T03:02:24;18.80;39.80
31129;DHT22;17777;48.770;8.944;2023-05-29T03:04:51;18.80;39.90
31129;DHT22;17777;48.770;8.944;2023-05-29T03:07:19;18.80;39.90
31129;DHT22;17777;48.770;8.944;2023-05-29T03:09:45;18.80;39.90
31129;DHT22;17777;48.770;8.944;2023-05-29T03:12:11;18.70;39.90
31129;DHT22;17777;48.770;8.944;2023-05-29T03:14:37;18.70;39.90
31129;DHT22;17777;48.770;8.944;2023-05-29T03:17:07;18.70;39.90
31129;DHT22;17777;48.770;8.944;2023-05-29T03:19:33;18.70;40.00
31129;DHT22;17777;48.770;8.944;2023-05-29T03:22:00;18.60;40.00
31129;DHT22;17777;48.770;8.944;2023-05-29T03:24:29;18.60;40.10
31129;DHT22;17777;48.770;8.944;2023-05-29T03:26:55;18.60;40.10
31129;DHT22;17777;48.770;8.944;2023-05-29T03:29:22;18.60;40.20
31129;DHT22;17777;48.770;8.944;2023-05-29T03:31:48;18.50;40.20
31129;DHT22;17777;48.770;8.944;2023-05-29T03:34:19;18.50;40.30
31129;DHT22;17777;48.770;8.944;2023-05-29T03:36:54;18.50;40.30
31129;DHT22;17777;48.770;8.944;2023-05-29T03:39:20;18.50;40.30
31129;DHT22;17777;48.770;8.944;2023-05-29T03:41:47;18.50;40.20
31129;DHT22;17777;48.770;8.944;2023-05-29T03:44:13;18.40;40.30
31129;DHT22;17777;48.770;8.944;2023-05-29T03:46:39;18.40;40.30
31129;DHT22;17777;48.770;8.944;2023-05-29T03:49:05;18.40;40.40
31129;DHT22;17777;48.770;8.944;2023-05-29T03:51:32;18.40;40.40
31129;DHT22;17777;48.770;8.944;2023-05-29T03:53:58;18.30;40.30
31129;DHT22;17777;48.770;8.944;2023-05-29T03:56:24;18.30;40.40
31129;DHT22;17777;48.770;8.944;2023-05-29T03:58:52;18.30;40.50
31129;DHT22;17777;48.770;8.944;2023-05-29T04:01:19;18.20;40.50
31129;DHT22;17777;48.770;8.944;2023-05-29T04:03:45;18.20;40.60
31129;DHT22;17777;48.770;8.944;2023-05-29T04:06:13;18.20;40.60
31129;DHT22;17777;48.770;8.944;2023-05-29T04:08:39;18.20;40.80
31129;DHT22;17777;48.770;8.944;2023-05-29T04:11:06;18.20;40.80
31129;DHT22;17777;48.770;8.944;2023-05-29T04:13:32;18.20;41.00
31129;DHT22;17777;48.770;8.944;2023-05-29T04:15:58;18.10;40.90
31129;DHT22;17777;48.770;8.944;2023-05-29T04:18:24;18.10;41.10
31129;DHT22;17777;48.770;8.944;2023-05-29T04:20:51;18.10;41.20
31129;DHT22;17777;48.770;8.944;2023-05-29T04:23:19;18.10;41.20
31129;DHT22;17777;48.770;8.944;2023-05-29T04:25:46;18.10;41.40
31129;DHT22;17777;48.770;8.944;2023-05-29T04:28:14;18.00;41.40
31129;DHT22;17777;48.770;8.944;2023-05-29T04:30:41;18.00;41.30
31129;DHT22;17777;48.770;8.944;2023-05-29T04:33:07;18.10;41.40
31129;DHT22;17777;48.770;8.944;2023-05-29T04:35:35;18.10;41.40
31129;DHT22;17777;48.770;8.944;2023-05-29T04:38:05;18.00;41.50
31129;DHT22;17777;48.770;8.944;2023-05-29T04:40:32;18.00;41.60
31129;DHT22;17777;48.770;8.944;2023-05-29T04:42:59;18.00;41.70
31129;DHT22;17777;48.770;8.944;2023-05-29T04:45:35;18.00;41.90
31129;DHT22;17777;48.770;8.944;2023-05-29T04:48:04;18.00;41.90
31129;DHT22;17777;48.770;8.944;2023-05-29T04:50:30;18.00;42.00
31129;DHT22;17777;48.770;8.944;2023-05-29T04:52:58;18.00;42.20
31129;DHT22;17777;48.770;8.944;2023-05-29T04:55:23;18.00;42.30
31129;DHT22;17777;48.770;8.944;2023-05-29T04:57:49;18.00;42.40
31129;DHT22;17777;48.770;8.944;2023-05-29T05:00:15;18.00;42.40
31129;DHT22;17777;48.770;8.944;2023-05-29T05:02:44;18.00;42.50
31129;DHT22;17777;48.770;8.944;2023-05-29T05:05:12;18.10;42.70
31129;DHT22;17777;48.770;8.944;2023-05-29T05:07:38;18.10;42.70
31129;DHT22;17777;48.770;8.944;2023-05-29T05:10:06;18.10;42.80
31129;DHT22;17777;48.770;8.944;2023-05-29T05:12:33;18.10;42.90
31129;DHT22;17777;48.770;8.944;2023-05-29T05:15:00;18.10;43.00
31129;DHT22;17777;48.770;8.944;2023-05-29T05:17:27;18.20;43.10
31129;DHT22;17777;48.770;8.944;2023-05-29T05:19:54;18.20;43.20
31129;DHT22;17777;48.770;8.944;2023-05-29T05:22:20;18.20;43.40
31129;DHT22;17777;48.770;8.944;2023-05-29T05:24:48;18.30;43.50
31129;DHT22;17777;48.770;8.944;2023-05-29T05:27:14;18.30;43.60
31129;DHT22;17777;48.770;8.944;2023-05-29T05:29:40;18.30;43.70
31129;DHT22;17777;48.770;8.944;2023-05-29T05:32:06;18.30;43.70
31129;DHT22;17777;48.770;8.944;2023-05-29T05:34:32;18.40;43.80
31129;DHT22;17777;48.770;8.944;2023-05-29T05:36:58;18.40;43.80
31129;DHT22;17777;48.770;8.944;2023-05-29T05:39:24;18.40;43.90
31129;DHT22;17777;48.770;8.944;2023-05-29T05:41:51;18.50;43.90
31129;DHT22;17777;48.770;8.944;2023-05-29T05:44:32;18.50;44.00
31129;DHT22;17777;48.770;8.944;2023-05-29T05:47:02;18.60;44.00
31129;DHT22;17777;48.770;8.944;2023-05-29T05:49:28;18.60;44.10
31129;DHT22;17777;48.770;8.944;2023-05-29T05:51:54;18.70;44.20
31129;DHT22;17777;48.770;8.944;2023-05-29T05:54:20;18.70;44.30
31129;DHT22;17777;48.770;8.944;2023-05-29T05:56:45;18.80;44.50
31129;DHT22;17777;48.770;8.944;2023-05-29T05:59:14;18.80;44.70
31129;DHT22;17777;48.770;8.944;2023-05-29T06:01:41;18.90;44.80
31129;DHT22;17777;48.770;8.944;2023-05-29T06:04:07;18.90;44.80
31129;DHT22;17777;48.770;8.944;2023-05-29T06:06:34;19.00;44.70
31129;DHT22;17777;48.770;8.944;2023-05-29T06:09:00;19.00;44.70
31129;DHT22;17777;48.770;8.944;2023-05-29T06:11:27;19.10;44.80
31129;DHT22;17777;48.770;8.944;2023-05-29T06:13:54;19.20;44.60
31129;DHT22;17777;48.770;8.944;2023-05-29T06:16:26;19.20;44.40
31129;DHT22;17777;48.770;8.944;2023-05-29T06:18:52;19.30;44.40
31129;DHT22;17777;48.770;8.944;2023-05-29T06:21:18;19.30;44.40
31129;DHT22;17777;48.770;8.944;2023-05-29T06:23:51;19.40;44.40
31129;DHT22;17777;48.770;8.944;2023-05-29T06:26:17;19.50;44.40
31129;DHT22;17777;48.770;8.944;2023-05-29T06:28:43;19.60;44.40
31129;DHT22;17777;48.770;8.944;2023-05-29T06:31:09;19.60;44.40
31129;DHT22;17777;48.770;8.944;2023-05-29T06:33:36;19.70;44.50
31129;DHT22;17777;48.770;8.944;2023-05-29T06:36:04;19.80;44.70
31129;DHT22;17777;48.770;8.944;2023-05-29T06:38:31;19.80;44.60
31129;DHT22;17777;48.770;8.944;2023-05-29T06:40:57;19.90;44.60
31129;DHT22;17777;48.770;8.944;2023-05-29T06:43:23;20.00;44.70
31129;DHT22;17777;48.770;8.944;2023-05-29T06:45:55;20.10;44.80
31129;DHT22;17777;48.770;8.944;2023-05-29T06:48:21;20.20;44.70
31129;DHT22;17777;48.770;8.944;2023-05-29T06:50:48;20.30;45.30
31129;DHT22;17777;48.770;8.944;2023-05-29T06:53:35;20.30;44.60
31129;DHT22;17777;48.770;8.944;2023-05-29T06:56:01;20.40;44.50
31129;DHT22;17777;48.770;8.944;2023-05-29T06:58:30;20.50;44.50
31129;DHT22;17777;48.770;8.944;2023-05-29T07:00:57;20.60;44.40
31129;DHT22;17777;48.770;8.944;2023-05-29T07:03:33;20.70;44.40
31129;DHT22;17777;48.770;8.944;2023-05-29T07:06:01;20.80;44.30
31129;DHT22;17777;48.770;8.944;2023-05-29T07:08:27;20.90;44.20
31129;DHT22;17777;48.770;8.944;2023-05-29T07:10:53;20.90;44.10
31129;DHT22;17777;48.770;8.944;2023-05-29T07:13:20;21.00;44.00
31129;DHT22;17777;48.770;8.944;2023-05-29T07:15:48;21.10;44.00
31129;DHT22;17777;48.770;8.944;2023-05-29T07:18:14;21.20;44.00
31129;DHT22;17777;48.770;8.944;2023-05-29T07:20:41;21.20;43.90
31129;DHT22;17777;48.770;8.944;2023-05-29T07:23:10;21.30;43.80
31129;DHT22;17777;48.770;8.944;2023-05-29T07:25:36;21.40;43.80
31129;DHT22;17777;48.770;8.944;2023-05-29T07:28:02;21.50;43.70
31129;DHT22;17777;48.770;8.944;2023-05-29T07:30:28;21.50;43.60
31129;DHT22;17777;48.770;8.944;2023-05-29T07:32:54;21.60;43.50
31129;DHT22;17777;48.770;8.944;2023-05-29T07:35:20;21.70;43.50
31129;DHT22;17777;48.770;8.944;2023-05-29T07:37:48;21.80;43.40
31129;DHT22;17777;48.770;8.944;2023-05-29T07:40:15;21.80;43.30
31129;DHT22;17777;48.770;8.944;2023-05-29T07:42:56;21.90;43.30
31129;DHT22;17777;48.770;8.944;2023-05-29T07:45:24;22.00;43.10
31129;DHT22;17777;48.770;8.944;2023-05-29T07:47:51;22.10;43.00
31129;DHT22;17777;48.770;8.944;2023-05-29T07:50:17;22.10;42.80
31129;DHT22;17777;48.770;8.944;2023-05-29T07:52:43;22.20;43.40
31129;DHT22;17777;48.770;8.944;2023-05-29T07:55:09;22.20;42.70
31129;DHT22;17777;48.770;8.944;2023-05-29T07:57:37;22.30;42.60
31129;DHT22;17777;48.770;8.944;2023-05-29T08:00:03;22.40;42.50
31129;DHT22;17777;48.770;8.944;2023-05-29T08:02:35;22.50;42.50
31129;DHT22;17777;48.770;8.944;2023-05-29T08:05:27;22.50;42.40
31129;DHT22;17777;48.770;8.944;2023-05-29T08:07:53;22.60;42.30
31129;DHT22;17777;48.770;8.944;2023-05-29T08:10:19;22.60;42.20
31129;DHT22;17777;48.770;8.944;2023-05-29T08:12:45;22.70;42.20
31129;DHT22;17777;48.770;8.944;2023-05-29T08:15:11;22.80;42.10
31129;DHT22;17777;48.770;8.944;2023-05-29T08:17:38;22.80;42.10
31129;DHT22;17777;48.770;8.944;2023-05-29T08:20:04;22.90;42.20
31129;DHT22;17777;48.770;8.944;2023-05-29T08:22:33;23.00;42.20
31129;DHT22;17777;48.770;8.944;2023-05-29T08:24:59;23.00;42.00
31129;DHT22;17777;48.770;8.944;2023-05-29T08:27:25;23.10;41.90
31129;DHT22;17777;48.770;8.944;2023-05-29T08:29:51;23.20;41.70
31129;DHT22;17777;48.770;8.944;2023-05-29T08:32:17;23.30;41.70
31129;DHT22;17777;48.770;8.944;2023-05-29T08:34:42;23.30;41.70
31129;DHT22;17777;48.770;8.944;2023-05-29T08:37:10;23.40;41.60
31129;DHT22;17777;48.770;8.944;2023-05-29T08:39:37;23.50;41.50
31129;DHT22;17777;48.770;8.944;2023-05-29T08:42:13;23.60;41.50
31129;DHT22;17777;48.770;8.944;2023-05-29T08:44:47;23.70;41.20
31129;DHT22;17777;48.770;8.944;2023-05-29T08:47:17;23.70;41.20
31129;DHT22;17777;48.770;8.944;2023-05-29T08:49:52;23.80;41.00
31129;DHT22;17777;48.770;8.944;2023-05-29T08:52:21;23.90;40.90
31129;DHT22;17777;48.770;8.944;2023-05-29T08:54:48;23.90;40.80
31129;DHT22;17777;48.770;8.944;2023-05-29T08:57:14;24.00;40.90
31129;DHT22;17777;48.770;8.944;2023-05-29T08:59:43;24.10;40.80
31129;DHT22;17777;48.770;8.944;2023-05-29T09:02:11;24.10;40.90
31129;DHT22;17777;48.770;8.944;2023-05-29T09:04:43;24.20;40.90
31129;DHT22;17777;48.770;8.944;2023-05-29T09:07:18;24.30;40.80
31129;DHT22;17777;48.770;8.944;2023-05-29T09:09:45;24.40;41.00
31129;DHT22;17777;48.770;8.944;2023-05-29T09:12:12;24.40;40.80
31129;DHT22;17777;48.770;8.944;2023-05-29T09:14:41;24.50;40.80
31129;DHT22;17777;48.770;8.944;2023-05-29T09:17:09;24.60;40.50
31129;DHT22;17777;48.770;8.944;2023-05-29T09:19:36;24.70;40.50
31129;DHT22;17777;48.770;8.944;2023-05-29T09:24:41;24.80;40.10
31129;DHT22;17777;48.770;8.944;2023-05-29T09:27:09;24.90;40.20
31129;DHT22;17777;48.770;8.944;2023-05-29T09:29:39;25.00;40.10
31129;DHT22;17777;48.770;8.944;2023-05-29T09:32:10;25.00;39.90
31129;DHT22;17777;48.770;8.944;2023-05-29T09:34:39;25.10;39.90
31129;DHT22;17777;48.770;8.944;2023-05-29T09:37:07;25.20;40.00
31129;DHT22;17777;48.770;8.944;2023-05-29T09:39:44;25.20;39.80
31129;DHT22;17777;48.770;8.944;2023-05-29T09:42:11;25.30;40.00
31129;DHT22;17777;48.770;8.944;2023-05-29T09:44:40;25.40;39.80
31129;DHT22;17777;48.770;8.944;2023-05-29T09:47:06;25.40;39.60
31129;DHT22;17777;48.770;8.944;2023-05-29T09:49:33;25.50;39.40
31129;DHT22;17777;48.770;8.944;2023-05-29T09:52:00;25.50;39.60
31129;DHT22;17777;48.770;8.944;2023-05-29T09:54:29;25.60;39.60
31129;DHT22;17777;48.770;8.944;2023-05-29T09:56:57;25.70;39.50
31129;DHT22;17777;48.770;8.944;2023-05-29T09:59:24;25.70;39.50
31129;DHT22;17777;48.770;8.944;2023-05-29T10:02:03;25.80;39.40
31129;DHT22;17777;48.770;8.944;2023-05-29T10:04:30;25.80;39.30
31129;DHT22;17777;48.770;8.944;2023-05-29T10:07:12;25.90;39.50
31129;DHT22;17777;48.770;8.944;2023-05-29T10:09:47;26.00;39.50
31129;DHT22;17777;48.770;8.944;2023-05-29T10:12:20;26.00;39.00
31129;DHT22;17777;48.770;8.944;2023-05-29T10:14:49;26.10;39.10
31129;DHT22;17777;48.770;8.944;2023-05-29T10:17:16;26.20;38.60
31129;DHT22;17777;48.770;8.944;2023-05-29T10:19:44;26.20;38.70
31129;DHT22;17777;48.770;8.944;2023-05-29T10:22:13;26.30;38.70
31129;DHT22;17777;48.770;8.944;2023-05-29T10:24:40;26.30;38.50
31129;DHT22;17777;48.770;8.944;2023-05-29T10:27:05;26.40;38.50
31129;DHT22;17777;48.770;8.944;2023-05-29T10:29:36;26.50;38.50
31129;DHT22;17777;48.770;8.944;2023-05-29T10:32:32;26.50;38.20
31129;DHT22;17777;48.770;8.944;2023-05-29T10:35:28;26.60;37.90
31129;DHT22;17777;48.770;8.944;2023-05-29T10:38:10;26.70;37.90
31129;DHT22;17777;48.770;8.944;2023-05-29T10:40:38;26.80;37.60
31129;DHT22;17777;48.770;8.944;2023-05-29T10:43:04;26.80;37.90
31129;DHT22;17777;48.770;8.944;2023-05-29T10:50:47;27.00;38.20
31129;DHT22;17777;48.770;8.944;2023-05-29T10:53:22;27.00;37.10
31129;DHT22;17777;48.770;8.944;2023-05-29T10:55:50;27.10;37.40
31129;DHT22;17777;48.770;8.944;2023-05-29T10:58:23;27.10;37.50
31129;DHT22;17777;48.770;8.944;2023-05-29T11:00:52;27.20;37.40
31129;DHT22;17777;48.770;8.944;2023-05-29T11:03:24;27.30;37.60
31129;DHT22;17777;48.770;8.944;2023-05-29T11:06:00;27.30;37.40
31129;DHT22;17777;48.770;8.944;2023-05-29T11:08:47;27.30;37.60
31129;DHT22;17777;48.770;8.944;2023-05-29T11:11:46;27.40;36.30
31129;DHT22;17777;48.770;8.944;2023-05-29T11:15:05;27.50;36.60
31129;DHT22;17777;48.770;8.944;2023-05-29T11:25:15;27.70;35.70
31129;DHT22;17777;48.770;8.944;2023-05-29T11:27:43;27.80;35.70
31129;DHT22;17777;48.770;8.944;2023-05-29T11:30:09;27.80;35.20
31129;DHT22;17777;48.770;8.944;2023-05-29T11:32:37;27.80;35.10
31129;DHT22;17777;48.770;8.944;2023-05-29T11:35:08;27.90;34.90
31129;DHT22;17777;48.770;8.944;2023-05-29T11:37:38;27.90;34.10
31129;DHT22;17777;48.770;8.944;2023-05-29T11:40:09;28.00;34.30
31129;DHT22;17777;48.770;8.944;2023-05-29T11:42:35;28.00;34.20
31129;DHT22;17777;48.770;8.944;2023-05-29T11:45:15;28.10;34.80
31129;DHT22;17777;48.770;8.944;2023-05-29T11:50:26;28.20;34.50
31129;DHT22;17777;48.770;8.944;2023-05-29T11:52:53;28.20;34.40
31129;DHT22;17777;48.770;8.944;2023-05-29T11:55:22;28.30;34.40
31129;DHT22;17777;48.770;8.944;2023-05-29T11:57:59;28.30;34.20
31129;DHT22;17777;48.770;8.944;2023-05-29T12:00:29;28.30;34.20
31129;DHT22;17777;48.770;8.944;2023-05-29T12:02:59;28.40;34.00
31129;DHT22;17777;48.770;8.944;2023-05-29T12:05:43;28.40;33.70
31129;DHT22;17777;48.770;8.944;2023-05-29T12:08:24;28.50;33.50
31129;DHT22;17777;48.770;8.944;2023-05-29T12:10:52;28.60;32.90
31129;DHT22;17777;48.770;8.944;2023-05-29T12:13:19;28.60;33.20
31129;DHT22;17777;48.770;8.944;2023-05-29T12:15:48;28.60;32.90
31129;DHT22;17777;48.770;8.944;2023-05-29T12:18:15;28.60;32.80
31129;DHT22;17777;48.770;8.944;2023-05-29T12:20:41;28.70;32.80
31129;DHT22;17777;48.770;8.944;2023-05-29T12:23:07;28.70;32.70
31129;DHT22;17777;48.770;8.944;2023-05-29T12:25:34;28.70;32.70
31129;DHT22;17777;48.770;8.944;2023-05-29T12:28:04;28.80;33.20
31129;DHT22;17777;48.770;8.944;2023-05-29T12:30:30;28.80;32.30
31129;DHT22;17777;48.770;8.944;2023-05-29T12:32:56;28.80;31.80
31129;DHT22;17777;48.770;8.944;2023-05-29T12:35:24;28.90;31.50
31129;DHT22;17777;48.770;8.944;2023-05-29T12:37:57;28.90;31.20
31129;DHT22;17777;48.770;8.944;2023-05-29T12:40:28;28.90;30.60
31129;DHT22;17777;48.770;8.944;2023-05-29T12:42:59;28.90;30.50
31129;DHT22;17777;48.770;8.944;2023-05-29T12:45:30;29.00;30.80
31129;DHT22;17777;48.770;8.944;2023-05-29T12:48:00;29.00;30.70
31129;DHT22;17777;48.770;8.944;2023-05-29T12:53:11;29.10;30.40
31129;DHT22;17777;48.770;8.944;2023-05-29T12:55:39;29.10;29.50
31129;DHT22;17777;48.770;8.944;2023-05-29T12:58:07;29.10;30.10
31129;DHT22;17777;48.770;8.944;2023-05-29T13:00:35;29.10;30.00
31129;DHT22;17777;48.770;8.944;2023-05-29T13:03:04;29.20;29.90
31129;DHT22;17777;48.770;8.944;2023-05-29T13:05:31;29.20;29.60
31129;DHT22;17777;48.770;8.944;2023-05-29T13:07:58;29.20;29.70
31129;DHT22;17777;48.770;8.944;2023-05-29T13:10:25;29.20;29.60
31129;DHT22;17777;48.770;8.944;2023-05-29T13:12:53;29.30;29.40
31129;DHT22;17777;48.770;8.944;2023-05-29T13:15:23;29.30;29.50
31129;DHT22;17777;48.770;8.944;2023-05-29T13:17:50;29.30;29.20
31129;DHT22;17777;48.770;8.944;2023-05-29T13:20:16;29.30;29.50
31129;DHT22;17777;48.770;8.944;2023-05-29T13:22:44;29.30;29.30
31129;DHT22;17777;48.770;8.944;2023-05-29T13:25:13;29.40;29.10
31129;DHT22;17777;48.770;8.944;2023-05-29T13:27:43;29.40;29.00
31129;DHT22;17777;48.770;8.944;2023-05-29T13:30:11;29.40;29.10
31129;DHT22;17777;48.770;8.944;2023-05-29T13:32:38;29.50;29.20
31129;DHT22;17777;48.770;8.944;2023-05-29T13:35:06;29.50;29.00
31129;DHT22;17777;48.770;8.944;2023-05-29T13:37:32;29.50;28.70
31129;DHT22;17777;48.770;8.944;2023-05-29T13:39:58;29.50;28.70
31129;DHT22;17777;48.770;8.944;2023-05-29T13:42:24;29.50;28.60
31129;DHT22;17777;48.770;8.944;2023-05-29T13:44:50;29.60;28.70
31129;DHT22;17777;48.770;8.944;2023-05-29T13:47:16;29.60;28.60
31129;DHT22;17777;48.770;8.944;2023-05-29T13:49:42;29.60;28.90
31129;DHT22;17777;48.770;8.944;2023-05-29T13:52:08;29.60;28.20
31129;DHT22;17777;48.770;8.944;2023-05-29T13:54:35;29.60;28.20
31129;DHT22;17777;48.770;8.944;2023-05-29T13:57:02;29.60;28.30
31129;DHT22;17777;48.770;8.944;2023-05-29T13:59:29;29.60;28.00
31129;DHT22;17777;48.770;8.944;2023-05-29T14:01:56;29.70;27.90
31129;DHT22;17777;48.770;8.944;2023-05-29T14:04:22;29.70;27.80
31129;DHT22;17777;48.770;8.944;2023-05-29T14:06:48;29.70;27.90
31129;DHT22;17777;48.770;8.944;2023-05-29T14:09:13;29.70;27.90
31129;DHT22;17777;48.770;8.944;2023-05-29T14:11:40;29.70;27.90
31129;DHT22;17777;48.770;8.944;2023-05-29T14:14:06;29.70;27.70
31129;DHT22;17777;48.770;8.944;2023-05-29T14:16:33;29.70;27.70
31129;DHT22;17777;48.770;8.944;2023-05-29T14:19:00;29.70;27.60
31129;DHT22;17777;48.770;8.944;2023-05-29T14:21:26;29.80;27.70
31129;DHT22;17777;48.770;8.944;2023-05-29T14:23:52;29.70;27.70
31129;DHT22;17777;48.770;8.944;2023-05-29T14:26:18;29.80;27.60
31129;DHT22;17777;48.770;8.944;2023-05-29T14:28:44;29.80;27.50
31129;DHT22;17777;48.770;8.944;2023-05-29T14:31:10;29.80;27.50
31129;DHT22;17777;48.770;8.944;2023-05-29T14:33:36;29.80;27.30
31129;DHT22;17777;48.770;8.944;2023-05-29T14:36:04;29.80;27.50
31129;DHT22;17777;48.770;8.944;2023-05-29T14:38:30;29.80;27.70
31129;DHT22;17777;48.770;8.944;2023-05-29T14:40:56;29.80;27.50
31129;DHT22;17777;48.770;8.944;2023-05-29T14:43:22;29.80;27.30
31129;DHT22;17777;48.770;8.944;2023-05-29T14:45:48;29.90;27.30
31129;DHT22;17777;48.770;8.944;2023-05-29T14:48:13;29.90;27.40
31129;DHT22;17777;48.770;8.944;2023-05-29T14:50:41;29.90;27.30
31129;DHT22;17777;48.770;8.944;2023-05-29T14:53:07;29.90;27.30
31129;DHT22;17777;48.770;8.944;2023-05-29T14:55:33;29.90;27.20
31129;DHT22;17777;48.770;8.944;2023-05-29T14:58:03;29.90;27.10
31129;DHT22;17777;48.770;8.944;2023-05-29T15:00:29;29.90;27.10
31129;DHT22;17777;48.770;8.944;2023-05-29T15:02:56;29.90;27.10
31129;DHT22;17777;48.770;8.944;2023-05-29T15:05:26;29.90;27.20
31129;DHT22;17777;48.770;8.944;2023-05-29T15:07:52;29.90;27.20
31129;DHT22;17777;48.770;8.944;2023-05-29T15:10:20;29.90;27.30
31129;DHT22;17777;48.770;8.944;2023-05-29T15:12:46;29.90;27.30
31129;DHT22;17777;48.770;8.944;2023-05-29T15:15:12;29.90;27.20
31129;DHT22;17777;48.770;8.944;2023-05-29T15:17:38;29.90;27.20
31129;DHT22;17777;48.770;8.944;2023-05-29T15:20:05;29.90;27.10
31129;DHT22;17777;48.770;8.944;2023-05-29T15:22:31;29.90;27.30
31129;DHT22;17777;48.770;8.944;2023-05-29T15:24:57;29.90;27.30
31129;DHT22;17777;48.770;8.944;2023-05-29T15:27:23;29.90;27.30
31129;DHT22;17777;48.770;8.944;2023-05-29T15:29:52;29.90;27.20
31129;DHT22;17777;48.770;8.944;2023-05-29T15:32:18;29.90;27.30
31129;DHT22;17777;48.770;8.944;2023-05-29T15:34:44;29.90;27.40
31129;DHT22;17777;48.770;8.944;2023-05-29T15:37:09;29.90;27.30
31129;DHT22;17777;48.770;8.944;2023-05-29T15:39:35;29.90;27.30
31129;DHT22;17777;48.770;8.944;2023-05-29T15:42:03;29.90;27.20
31129;DHT22;17777;48.770;8.944;2023-05-29T15:44:29;29.90;27.30
31129;DHT22;17777;48.770;8.944;2023-05-29T15:46:55;29.90;27.20
31129;DHT22;17777;48.770;8.944;2023-05-29T15:49:21;29.90;27.20
31129;DHT22;17777;48.770;8.944;2023-05-29T15:51:46;29.90;27.10
31129;DHT22;17777;48.770;8.944;2023-05-29T15:54:12;29.90;27.00
31129;DHT22;17777;48.770;8.944;2023-05-29T15:56:38;29.90;27.00
31129;DHT22;17777;48.770;8.944;2023-05-29T15:59:04;29.90;27.00
31129;DHT22;17777;48.770;8.944;2023-05-29T16:01:30;29.80;27.00
31129;DHT22;17777;48.770;8.944;2023-05-29T16:03:56;29.80;27.20
31129;DHT22;17777;48.770;8.944;2023-05-29T16:06:22;29.80;27.20
31129;DHT22;17777;48.770;8.944;2023-05-29T16:08:48;29.80;27.20